sensor_id;sensor_type;location;lat;lon;timestamp;P1;durP1;ratioP1;P2;durP2;ratioP2
11699;SDS011;5906;51.660;6.674;2023-06-14T00:00:15;8.60;;;5.97;;
11699;SDS011;5906;51.660;6.674;2023-06-14T00:02:42;9.03;;;5.90;;
11699;SDS011;5906;51.660;6.674;2023-06-14T00:05:09;18.73;;;5.67;;
11699;SDS011;5906;51.660;6.674;2023-06-14T00:07:39;7.57;;;5.77;;
11699;SDS011;5906;51.660;6.674;2023-06-14T00:10:10;9.93;;;6.20;;
11699;SDS011;5906;51.660;6.674;2023-06-14T00:12:38;14.83;;;6.67;;
11699;SDS011;5906;51.660;6.674;2023-06-14T00:15:05;8.33;;;5.10;;
11699;SDS011;5906;51.660;6.674;2023-06-14T00:17:33;8.73;;;6.07;;
11699;SDS011;5906;51.660;6.674;2023-06-14T00:20:01;7.73;;;5.50;;
11699;SDS011;5906;51.660;6.674;2023-06-14T00:22:31;8.97;;;5.70;;
11699;SDS011;5906;51.660;6.674;2023-06-14T00:24:59;14.43;;;5.20;;
11699;SDS011;5906;51.660;6.674;2023-06-14T00:27:36;11.27;;;5.90;;
11699;SDS011;5906;51.660;6.674;2023-06-14T00:30:04;8.50;;;5.40;;
11699;SDS011;5906;51.660;6.674;2023-06-14T00:32:31;13.63;;;5.40;;
11699;SDS011;5906;51.660;6.674;2023-06-14T00:34:58;8.63;;;5.60;;
11699;SDS011;5906;51.660;6.674;2023-06-14T00:37:25;10.67;;;5.33;;
11699;SDS011;5906;51.660;6.674;2023-06-14T00:39:51;11.90;;;5.10;;
11699;SDS011;5906;51.660;6.674;2023-06-14T00:42:25;9.20;;;5.30;;
11699;SDS011;5906;51.660;6.674;2023-06-14T00:44:53;9.93;;;5.50;;
11699;SDS011;5906;51.660;6.674;2023-06-14T00:47:21;9.60;;;5.03;;
11699;SDS011;5906;51.660;6.674;2023-06-14T00:49:49;10.00;;;5.50;;
11699;SDS011;5906;51.660;6.674;2023-06-14T00:52:17;12.87;;;5.83;;
11699;SDS011;5906;51.660;6.674;2023-06-14T00:54:45;9.77;;;5.40;;
11699;SDS011;5906;51.660;6.674;2023-06-14T00:57:12;10.87;;;5.87;;
11699;SDS011;5906;51.660;6.674;2023-06-14T00:59:43;9.53;;;5.47;;
11699;SDS011;5906;51.660;6.674;2023-06-14T01:02:14;10.10;;;4.87;;
11699;SDS011;5906;51.660;6.674;2023-06-14T01:04:41;9.13;;;5.77;;
11699;SDS011;5906;51.660;6.674;2023-06-14T01:07:15;9.73;;;4.93;;
11699;SDS011;5906;51.660;6.674;2023-06-14T01:09:58;8.67;;;4.50;;
11699;SDS011;5906;51.660;6.674;2023-06-14T01:15:36;7.80;;;5.00;;
11699;SDS011;5906;51.660;6.674;2023-06-14T01:18:04;9.87;;;4.73;;
11699;SDS011;5906;51.660;6.674;2023-06-14T01:20:32;10.20;;;4.90;;
11699;SDS011;5906;51.660;6.674;2023-06-14T01:23:03;8.43;;;5.10;;
11699;SDS011;5906;51.660;6.674;2023-06-14T01:25:30;11.63;;;4.40;;
11699;SDS011;5906;51.660;6.674;2023-06-14T01:28:00;5.43;;;4.67;;
11699;SDS011;5906;51.660;6.674;2023-06-14T01:30:30;8.37;;;5.40;;
11699;SDS011;5906;51.660;6.674;2023-06-14T01:32:59;9.63;;;5.00;;
11699;SDS011;5906;51.660;6.674;2023-06-14T01:35:27;10.33;;;4.30;;
11699;SDS011;5906;51.660;6.674;2023-06-14T01:37:54;9.07;;;4.83;;
11699;SDS011;5906;51.660;6.674;2023-06-14T01:40:21;11.90;;;6.00;;
11699;SDS011;5906;51.660;6.674;2023-06-14T01:42:50;6.37;;;4.73;;
11699;SDS011;5906;51.660;6.674;2023-06-14T01:45:18;8.37;;;4.43;;
11699;SDS011;5906;51.660;6.674;2023-06-14T01:47:46;6.90;;;4.63;;
11699;SDS011;5906;51.660;6.674;2023-06-14T01:50:13;6.60;;;4.67;;
11699;SDS011;5906;51.660;6.674;2023-06-14T01:52:42;6.50;;;5.07;;
11699;SDS011;5906;51.660;6.674;2023-06-14T01:55:09;9.27;;;4.70;;
11699;SDS011;5906;51.660;6.674;2023-06-14T01:57:36;6.03;;;4.90;;
11699;SDS011;5906;51.660;6.674;2023-06-14T02:00:06;5.90;;;4.40;;
11699;SDS011;5906;51.660;6.674;2023-06-14T02:02:37;13.17;;;5.00;;
11699;SDS011;5906;51.660;6.674;2023-06-14T02:05:04;7.03;;;4.40;;
11699;SDS011;5906;51.660;6.674;2023-06-14T02:07:31;11.77;;;4.33;;
11699;SDS011;5906;51.660;6.674;2023-06-14T02:09:58;7.50;;;5.50;;
11699;SDS011;5906;51.660;6.674;2023-06-14T02:12:25;6.60;;;4.60;;
11699;SDS011;5906;51.660;6.674;2023-06-14T02:14:52;6.23;;;4.60;;
11699;SDS011;5906;51.660;6.674;2023-06-14T02:17:19;8.40;;;5.17;;
11699;SDS011;5906;51.660;6.674;2023-06-14T02:19:45;6.57;;;4.63;;
11699;SDS011;5906;51.660;6.674;2023-06-14T02:22:12;6.50;;;4.63;;
11699;SDS011;5906;51.660;6.674;2023-06-14T02:24:41;5.23;;;4.20;;
11699;SDS011;5906;51.660;6.674;2023-06-14T02:27:08;9.37;;;4.70;;
11699;SDS011;5906;51.660;6.674;2023-06-14T02:29:38;7.73;;;4.80;;
11699;SDS011;5906;51.660;6.674;2023-06-14T02:32:05;5.93;;;4.60;;
11699;SDS011;5906;51.660;6.674;2023-06-14T02:34:33;4.97;;;4.03;;
11699;SDS011;5906;51.660;6.674;2023-06-14T02:37:01;8.70;;;4.63;;
11699;SDS011;5906;51.660;6.674;2023-06-14T02:39:31;7.80;;;4.33;;
11699;SDS011;5906;51.660;6.674;2023-06-14T02:41:58;14.43;;;4.83;;
11699;SDS011;5906;51.660;6.674;2023-06-14T02:44:25;8.20;;;4.70;;
11699;SDS011;5906;51.660;6.674;2023-06-14T02:46:56;8.77;;;4.60;;
11699;SDS011;5906;51.660;6.674;2023-06-14T02:49:23;8.07;;;5.60;;
11699;SDS011;5906;51.660;6.674;2023-06-14T02:51:49;12.23;;;4.67;;
11699;SDS011;5906;51.660;6.674;2023-06-14T02:54:16;5.00;;;4.13;;
11699;SDS011;5906;51.660;6.674;2023-06-14T02:56:43;7.77;;;5.03;;
11699;SDS011;5906;51.660;6.674;2023-06-14T02:59:11;6.57;;;4.80;;
11699;SDS011;5906;51.660;6.674;2023-06-14T03:01:40;5.23;;;4.10;;
11699;SDS011;5906;51.660;6.674;2023-06-14T03:04:08;10.60;;;4.40;;
11699;SDS011;5906;51.660;6.674;2023-06-14T03:06:35;9.60;;;4.60;;
11699;SDS011;5906;51.660;6.674;2023-06-14T03:09:03;14.07;;;4.63;;
11699;SDS011;5906;51.660;6.674;2023-06-14T03:11:35;6.10;;;4.10;;
11699;SDS011;5906;51.660;6.674;2023-06-14T03:14:02;5.10;;;4.47;;
11699;SDS011;5906;51.660;6.674;2023-06-14T03:16:30;4.70;;;4.20;;
11699;SDS011;5906;51.660;6.674;2023-06-14T03:18:58;8.23;;;4.10;;
11699;SDS011;5906;51.660;6.674;2023-06-14T03:21:25;10.23;;;4.53;;
11699;SDS011;5906;51.660;6.674;2023-06-14T03:23:52;6.77;;;4.20;;
11699;SDS011;5906;51.660;6.674;2023-06-14T03:26:19;5.50;;;4.00;;
11699;SDS011;5906;51.660;6.674;2023-06-14T03:28:46;12.87;;;4.20;;
11699;SDS011;5906;51.660;6.674;2023-06-14T03:31:15;6.70;;;4.30;;
11699;SDS011;5906;51.660;6.674;2023-06-14T03:33:43;10.87;;;4.13;;
11699;SDS011;5906;51.660;6.674;2023-06-14T03:36:09;6.57;;;4.10;;
11699;SDS011;5906;51.660;6.674;2023-06-14T03:38:37;9.70;;;4.70;;
11699;SDS011;5906;51.660;6.674;2023-06-14T03:41:04;8.60;;;4.70;;
11699;SDS011;5906;51.660;6.674;2023-06-14T03:43:31;4.90;;;3.87;;
11699;SDS011;5906;51.660;6.674;2023-06-14T03:45:57;7.67;;;4.23;;
11699;SDS011;5906;51.660;6.674;2023-06-14T03:48:24;9.50;;;4.20;;
11699;SDS011;5906;51.660;6.674;2023-06-14T03:50:51;11.00;;;4.70;;
11699;SDS011;5906;51.660;6.674;2023-06-14T03:53:18;7.53;;;3.93;;
11699;SDS011;5906;51.660;6.674;2023-06-14T03:55:46;11.80;;;4.10;;
11699;SDS011;5906;51.660;6.674;2023-06-14T03:58:18;7.20;;;4.00;;
11699;SDS011;5906;51.660;6.674;2023-06-14T04:00:45;6.43;;;4.13;;
11699;SDS011;5906;51.660;6.674;2023-06-14T04:03:12;5.93;;;4.30;;
11699;SDS011;5906;51.660;6.674;2023-06-14T04:05:39;4.90;;;3.80;;
11699;SDS011;5906;51.660;6.674;2023-06-14T04:08:08;5.93;;;4.30;;
11699;SDS011;5906;51.660;6.674;2023-06-14T04:10:35;6.90;;;4.90;;
11699;SDS011;5906;51.660;6.674;2023-06-14T04:13:03;10.47;;;4.17;;
11699;SDS011;5906;51.660;6.674;2023-06-14T04:15:30;6.70;;;4.70;;
11699;SDS011;5906;51.660;6.674;2023-06-14T04:17:57;4.30;;;3.73;;
11699;SDS011;5906;51.660;6.674;2023-06-14T04:20:24;6.43;;;4.07;;
11699;SDS011;5906;51.660;6.674;2023-06-14T04:22:52;6.50;;;4.37;;
11699;SDS011;5906;51.660;6.674;2023-06-14T04:25:19;5.57;;;4.00;;
11699;SDS011;5906;51.660;6.674;2023-06-14T04:27:49;10.07;;;4.17;;
11699;SDS011;5906;51.660;6.674;2023-06-14T04:30:16;14.20;;;5.00;;
11699;SDS011;5906;51.660;6.674;2023-06-14T04:32:43;6.70;;;4.47;;
11699;SDS011;5906;51.660;6.674;2023-06-14T04:35:10;4.73;;;4.00;;
11699;SDS011;5906;51.660;6.674;2023-06-14T04:37:38;7.43;;;3.90;;
11699;SDS011;5906;51.660;6.674;2023-06-14T04:40:07;9.00;;;4.30;;
11699;SDS011;5906;51.660;6.674;2023-06-14T04:42:37;6.63;;;4.40;;
11699;SDS011;5906;51.660;6.674;2023-06-14T04:45:07;8.83;;;4.40;;
11699;SDS011;5906;51.660;6.674;2023-06-14T04:47:36;7.50;;;3.90;;
11699;SDS011;5906;51.660;6.674;2023-06-14T04:50:04;6.97;;;3.70;;
11699;SDS011;5906;51.660;6.674;2023-06-14T04:52:31;10.03;;;4.20;;
11699;SDS011;5906;51.660;6.674;2023-06-14T04:54:58;8.13;;;4.27;;
11699;SDS011;5906;51.660;6.674;2023-06-14T04:57:26;9.90;;;4.23;;
11699;SDS011;5906;51.660;6.674;2023-06-14T04:59:53;10.00;;;4.07;;
11699;SDS011;5906;51.660;6.674;2023-06-14T05:02:25;5.70;;;3.73;;
11699;SDS011;5906;51.660;6.674;2023-06-14T05:04:52;5.77;;;3.90;;
11699;SDS011;5906;51.660;6.674;2023-06-14T05:07:21;5.90;;;4.10;;
11699;SDS011;5906;51.660;6.674;2023-06-14T05:09:50;6.00;;;4.23;;
11699;SDS011;5906;51.660;6.674;2023-06-14T05:12:17;10.17;;;4.40;;
11699;SDS011;5906;51.660;6.674;2023-06-14T05:14:45;7.43;;;3.97;;
11699;SDS011;5906;51.660;6.674;2023-06-14T05:17:12;10.03;;;3.60;;
11699;SDS011;5906;51.660;6.674;2023-06-14T05:19:39;9.90;;;4.00;;
11699;SDS011;5906;51.660;6.674;2023-06-14T05:22:07;19.60;;;3.80;;
11699;SDS011;5906;51.660;6.674;2023-06-14T05:24:34;5.37;;;3.70;;
11699;SDS011;5906;51.660;6.674;2023-06-14T05:27:01;6.33;;;4.30;;
11699;SDS011;5906;51.660;6.674;2023-06-14T05:29:28;3.70;;;3.40;;
11699;SDS011;5906;51.660;6.674;2023-06-14T05:31:56;6.80;;;3.70;;
11699;SDS011;5906;51.660;6.674;2023-06-14T05:34:23;5.10;;;3.73;;
11699;SDS011;5906;51.660;6.674;2023-06-14T05:36:51;4.70;;;3.50;;
11699;SDS011;5906;51.660;6.674;2023-06-14T05:39:18;8.10;;;4.07;;
11699;SDS011;5906;51.660;6.674;2023-06-14T05:41:45;5.27;;;3.63;;
11699;SDS011;5906;51.660;6.674;2023-06-14T05:44:14;4.90;;;3.50;;
11699;SDS011;5906;51.660;6.674;2023-06-14T05:46:42;10.27;;;4.60;;
11699;SDS011;5906;51.660;6.674;2023-06-14T05:49:09;4.67;;;3.53;;
11699;SDS011;5906;51.660;6.674;2023-06-14T05:51:41;9.53;;;3.80;;
11699;SDS011;5906;51.660;6.674;2023-06-14T05:54:08;5.10;;;3.90;;
11699;SDS011;5906;51.660;6.674;2023-06-14T05:56:35;8.87;;;3.60;;
11699;SDS011;5906;51.660;6.674;2023-06-14T05:59:02;5.47;;;3.60;;
11699;SDS011;5906;51.660;6.674;2023-06-14T06:01:29;7.70;;;3.50;;
11699;SDS011;5906;51.660;6.674;2023-06-14T06:03:57;10.53;;;4.00;;
11699;SDS011;5906;51.660;6.674;2023-06-14T06:06:24;5.93;;;4.13;;
11699;SDS011;5906;51.660;6.674;2023-06-14T06:08:52;5.70;;;3.73;;
11699;SDS011;5906;51.660;6.674;2023-06-14T06:11:19;6.87;;;3.57;;
11699;SDS011;5906;51.660;6.674;2023-06-14T06:13:46;4.87;;;3.80;;
11699;SDS011;5906;51.660;6.674;2023-06-14T06:16:13;5.60;;;3.50;;
11699;SDS011;5906;51.660;6.674;2023-06-14T06:18:41;5.30;;;3.43;;
11699;SDS011;5906;51.660;6.674;2023-06-14T06:21:11;6.70;;;3.70;;
11699;SDS011;5906;51.660;6.674;2023-06-14T06:23:38;6.77;;;3.40;;
11699;SDS011;5906;51.660;6.674;2023-06-14T06:26:05;6.27;;;3.40;;
11699;SDS011;5906;51.660;6.674;2023-06-14T06:28:32;5.57;;;3.77;;
11699;SDS011;5906;51.660;6.674;2023-06-14T06:30:59;4.97;;;3.90;;
11699;SDS011;5906;51.660;6.674;2023-06-14T06:33:30;3.30;;;3.00;;
11699;SDS011;5906;51.660;6.674;2023-06-14T06:35:57;5.83;;;3.63;;
11699;SDS011;5906;51.660;6.674;2023-06-14T06:38:24;3.77;;;3.17;;
11699;SDS011;5906;51.660;6.674;2023-06-14T06:40:52;4.50;;;3.30;;
11699;SDS011;5906;51.660;6.674;2023-06-14T06:43:21;14.20;;;3.37;;
11699;SDS011;5906;51.660;6.674;2023-06-14T06:45:48;7.70;;;3.03;;
11699;SDS011;5906;51.660;6.674;2023-06-14T06:48:15;5.93;;;3.10;;
11699;SDS011;5906;51.660;6.674;2023-06-14T06:50:42;3.67;;;3.10;;
11699;SDS011;5906;51.660;6.674;2023-06-14T06:53:09;5.43;;;3.33;;
11699;SDS011;5906;51.660;6.674;2023-06-14T06:55:36;6.00;;;3.03;;
11699;SDS011;5906;51.660;6.674;2023-06-14T07:00:35;6.37;;;3.30;;
11699;SDS011;5906;51.660;6.674;2023-06-14T07:03:02;8.07;;;2.90;;
11699;SDS011;5906;51.660;6.674;2023-06-14T07:05:32;2.97;;;2.50;;
11699;SDS011;5906;51.660;6.674;2023-06-14T07:07:59;4.87;;;2.70;;
11699;SDS011;5906;51.660;6.674;2023-06-14T07:10:26;7.30;;;2.93;;
11699;SDS011;5906;51.660;6.674;2023-06-14T07:12:53;4.47;;;2.73;;
11699;SDS011;5906;51.660;6.674;2023-06-14T07:15:23;4.97;;;2.60;;
11699;SDS011;5906;51.660;6.674;2023-06-14T07:17:50;4.07;;;2.83;;
11699;SDS011;5906;51.660;6.674;2023-06-14T07:20:17;5.47;;;2.77;;
11699;SDS011;5906;51.660;6.674;2023-06-14T07:22:45;6.30;;;2.80;;
11699;SDS011;5906;51.660;6.674;2023-06-14T07:25:12;4.30;;;2.80;;
11699;SDS011;5906;51.660;6.674;2023-06-14T07:27:42;7.30;;;3.30;;
11699;SDS011;5906;51.660;6.674;2023-06-14T07:30:09;2.80;;;2.40;;
11699;SDS011;5906;51.660;6.674;2023-06-14T07:32:57;5.30;;;3.10;;
11699;SDS011;5906;51.660;6.674;2023-06-14T07:35:24;3.37;;;3.07;;
11699;SDS011;5906;51.660;6.674;2023-06-14T07:37:51;4.40;;;2.90;;
11699;SDS011;5906;51.660;6.674;2023-06-14T07:40:19;7.20;;;2.60;;
11699;SDS011;5906;51.660;6.674;2023-06-14T07:42:46;3.30;;;2.50;;
11699;SDS011;5906;51.660;6.674;2023-06-14T07:45:13;3.60;;;2.50;;
11699;SDS011;5906;51.660;6.674;2023-06-14T07:47:41;10.03;;;2.77;;
11699;SDS011;5906;51.660;6.674;2023-06-14T07:50:09;4.77;;;2.60;;
11699;SDS011;5906;51.660;6.674;2023-06-14T07:52:36;4.73;;;2.80;;
11699;SDS011;5906;51.660;6.674;2023-06-14T07:55:04;5.70;;;2.83;;
11699;SDS011;5906;51.660;6.674;2023-06-14T07:57:31;6.33;;;2.47;;
11699;SDS011;5906;51.660;6.674;2023-06-14T07:59:58;3.80;;;2.37;;
11699;SDS011;5906;51.660;6.674;2023-06-14T08:02:25;4.30;;;2.63;;
11699;SDS011;5906;51.660;6.674;2023-06-14T08:04:54;5.73;;;2.60;;
11699;SDS011;5906;51.660;6.674;2023-06-14T08:07:21;4.10;;;2.87;;
11699;SDS011;5906;51.660;6.674;2023-06-14T08:09:48;4.50;;;2.67;;
11699;SDS011;5906;51.660;6.674;2023-06-14T08:12:14;5.33;;;2.37;;
11699;SDS011;5906;51.660;6.674;2023-06-14T08:14:42;4.97;;;2.97;;
11699;SDS011;5906;51.660;6.674;2023-06-14T08:17:09;3.10;;;2.80;;
11699;SDS011;5906;51.660;6.674;2023-06-14T08:19:36;3.10;;;2.70;;
11699;SDS011;5906;51.660;6.674;2023-06-14T08:22:03;4.47;;;2.60;;
11699;SDS011;5906;51.660;6.674;2023-06-14T08:24:31;5.00;;;2.97;;
11699;SDS011;5906;51.660;6.674;2023-06-14T08:26:58;8.00;;;2.90;;
11699;SDS011;5906;51.660;6.674;2023-06-14T08:29:28;7.53;;;2.93;;
11699;SDS011;5906;51.660;6.674;2023-06-14T08:31:58;4.53;;;2.50;;
11699;SDS011;5906;51.660;6.674;2023-06-14T08:34:25;4.70;;;2.80;;
11699;SDS011;5906;51.660;6.674;2023-06-14T08:36:53;2.50;;;2.27;;
11699;SDS011;5906;51.660;6.674;2023-06-14T08:39:21;2.97;;;2.63;;
11699;SDS011;5906;51.660;6.674;2023-06-14T08:41:49;7.53;;;2.57;;
11699;SDS011;5906;51.660;6.674;2023-06-14T08:44:19;2.93;;;2.50;;
11699;SDS011;5906;51.660;6.674;2023-06-14T08:46:47;5.50;;;2.90;;
11699;SDS011;5906;51.660;6.674;2023-06-14T08:49:16;3.23;;;2.50;;
11699;SDS011;5906;51.660;6.674;2023-06-14T08:51:43;4.00;;;2.30;;
11699;SDS011;5906;51.660;6.674;2023-06-14T08:54:11;2.87;;;2.10;;
11699;SDS011;5906;51.660;6.674;2023-06-14T08:56:42;3.83;;;2.37;;
11699;SDS011;5906;51.660;6.674;2023-06-14T08:59:10;2.90;;;2.37;;
11699;SDS011;5906;51.660;6.674;2023-06-14T09:01:38;2.27;;;2.07;;
11699;SDS011;5906;51.660;6.674;2023-06-14T09:04:11;3.83;;;2.23;;
11699;SDS011;5906;51.660;6.674;2023-06-14T09:06:39;2.47;;;1.90;;
11699;SDS011;5906;51.660;6.674;2023-06-14T09:09:07;3.60;;;2.03;;
11699;SDS011;5906;51.660;6.674;2023-06-14T09:11:34;5.23;;;2.23;;
11699;SDS011;5906;51.660;6.674;2023-06-14T09:14:01;2.77;;;2.10;;
11699;SDS011;5906;51.660;6.674;2023-06-14T09:16:29;2.30;;;2.10;;
11699;SDS011;5906;51.660;6.674;2023-06-14T09:18:59;3.53;;;2.17;;
11699;SDS011;5906;51.660;6.674;2023-06-14T09:21:27;4.03;;;2.27;;
11699;SDS011;5906;51.660;6.674;2023-06-14T09:23:57;2.27;;;2.00;;
11699;SDS011;5906;51.660;6.674;2023-06-14T09:26:25;2.63;;;2.40;;
11699;SDS011;5906;51.660;6.674;2023-06-14T09:28:54;3.80;;;2.53;;
11699;SDS011;5906;51.660;6.674;2023-06-14T09:31:21;2.43;;;2.23;;
11699;SDS011;5906;51.660;6.674;2023-06-14T09:33:49;4.90;;;2.03;;
11699;SDS011;5906;51.660;6.674;2023-06-14T09:36:23;6.40;;;2.67;;
11699;SDS011;5906;51.660;6.674;2023-06-14T09:38:55;3.20;;;2.33;;
11699;SDS011;5906;51.660;6.674;2023-06-14T09:44:06;2.40;;;1.87;;
11699;SDS011;5906;51.660;6.674;2023-06-14T09:46:37;3.23;;;2.40;;
11699;SDS011;5906;51.660;6.674;2023-06-14T09:49:06;2.60;;;2.30;;
11699;SDS011;5906;51.660;6.674;2023-06-14T09:51:36;3.20;;;2.20;;
11699;SDS011;5906;51.660;6.674;2023-06-14T09:54:11;2.83;;;2.17;;
11699;SDS011;5906;51.660;6.674;2023-06-14T09:56:44;3.37;;;2.20;;
11699;SDS011;5906;51.660;6.674;2023-06-14T09:59:12;5.83;;;2.23;;
11699;SDS011;5906;51.660;6.674;2023-06-14T10:01:41;4.40;;;2.47;;
11699;SDS011;5906;51.660;6.674;2023-06-14T10:04:10;2.30;;;2.10;;
11699;SDS011;5906;51.660;6.674;2023-06-14T10:06:40;6.10;;;2.17;;
11699;SDS011;5906;51.660;6.674;2023-06-14T10:09:10;2.90;;;2.20;;
11699;SDS011;5906;51.660;6.674;2023-06-14T10:11:37;2.13;;;1.93;;
11699;SDS011;5906;51.660;6.674;2023-06-14T10:14:11;1.87;;;1.77;;
11699;SDS011;5906;51.660;6.674;2023-06-14T10:19:34;1.80;;;1.60;;
11699;SDS011;5906;51.660;6.674;2023-06-14T10:22:04;2.47;;;2.10;;
11699;SDS011;5906;51.660;6.674;2023-06-14T10:24:42;2.97;;;1.80;;
11699;SDS011;5906;51.660;6.674;2023-06-14T10:27:13;1.70;;;1.50;;
11699;SDS011;5906;51.660;6.674;2023-06-14T10:30:02;2.77;;;2.20;;
11699;SDS011;5906;51.660;6.674;2023-06-14T10:32:30;3.80;;;1.70;;
11699;SDS011;5906;51.660;6.674;2023-06-14T10:35:00;10.17;;;1.80;;
11699;SDS011;5906;51.660;6.674;2023-06-14T10:37:31;1.97;;;1.80;;
11699;SDS011;5906;51.660;6.674;2023-06-14T10:39:58;10.40;;;2.07;;
11699;SDS011;5906;51.660;6.674;2023-06-14T10:42:32;2.67;;;1.70;;
11699;SDS011;5906;51.660;6.674;2023-06-14T10:45:00;2.37;;;1.73;;
11699;SDS011;5906;51.660;6.674;2023-06-14T10:49:56;2.30;;;1.77;;
11699;SDS011;5906;51.660;6.674;2023-06-14T10:52:27;1.70;;;1.50;;
11699;SDS011;5906;51.660;6.674;2023-06-14T10:57:36;2.50;;;1.70;;
11699;SDS011;5906;51.660;6.674;2023-06-14T11:00:19;2.83;;;1.70;;
11699;SDS011;5906;51.660;6.674;2023-06-14T11:05:48;2.33;;;1.60;;
11699;SDS011;5906;51.660;6.674;2023-06-14T11:10:59;2.30;;;1.73;;
11699;SDS011;5906;51.660;6.674;2023-06-14T11:13:28;1.43;;;1.33;;
11699;SDS011;5906;51.660;6.674;2023-06-14T11:15:57;8.93;;;1.70;;
11699;SDS011;5906;51.660;6.674;2023-06-14T11:18:26;1.80;;;1.57;;
11699;SDS011;5906;51.660;6.674;2023-06-14T11:20:55;1.60;;;1.50;;
11699;SDS011;5906;51.660;6.674;2023-06-14T11:23:22;2.90;;;1.70;;
11699;SDS011;5906;51.660;6.674;2023-06-14T11:25:52;2.20;;;1.50;;
11699;SDS011;5906;51.660;6.674;2023-06-14T11:28:19;5.93;;;1.90;;
11699;SDS011;5906;51.660;6.674;2023-06-14T11:30:48;3.97;;;1.87;;
11699;SDS011;5906;51.660;6.674;2023-06-14T11:33:25;3.70;;;1.60;;
11699;SDS011;5906;51.660;6.674;2023-06-14T11:35:52;11.40;;;1.80;;
11699;SDS011;5906;51.660;6.674;2023-06-14T11:38:19;4.63;;;1.80;;
11699;SDS011;5906;51.660;6.674;2023-06-14T11:40:46;2.00;;;1.80;;
11699;SDS011;5906;51.660;6.674;2023-06-14T11:43:13;2.17;;;1.97;;
11699;SDS011;5906;51.660;6.674;2023-06-14T11:45:41;2.60;;;2.00;;
11699;SDS011;5906;51.660;6.674;2023-06-14T11:48:09;4.00;;;1.70;;
11699;SDS011;5906;51.660;6.674;2023-06-14T11:50:37;2.00;;;1.53;;
11699;SDS011;5906;51.660;6.674;2023-06-14T11:53:05;1.90;;;1.67;;
11699;SDS011;5906;51.660;6.674;2023-06-14T11:55:37;3.10;;;1.80;;
11699;SDS011;5906;51.660;6.674;2023-06-14T11:58:05;2.27;;;1.80;;
11699;SDS011;5906;51.660;6.674;2023-06-14T12:00:35;1.80;;;1.50;;
11699;SDS011;5906;51.660;6.674;2023-06-14T12:03:03;4.70;;;1.77;;
11699;SDS011;5906;51.660;6.674;2023-06-14T12:05:30;6.70;;;1.70;;
11699;SDS011;5906;51.660;6.674;2023-06-14T12:08:01;1.83;;;1.63;;
11699;SDS011;5906;51.660;6.674;2023-06-14T12:10:29;3.00;;;1.50;;
11699;SDS011;5906;51.660;6.674;2023-06-14T12:13:05;2.60;;;2.10;;
11699;SDS011;5906;51.660;6.674;2023-06-14T12:15:32;1.80;;;1.70;;
11699;SDS011;5906;51.660;6.674;2023-06-14T12:17:59;2.17;;;1.80;;
11699;SDS011;5906;51.660;6.674;2023-06-14T12:20:30;3.10;;;1.80;;
11699;SDS011;5906;51.660;6.674;2023-06-14T12:22:59;1.77;;;1.60;;
11699;SDS011;5906;51.660;6.674;2023-06-14T12:27:58;2.47;;;1.70;;
11699;SDS011;5906;51.660;6.674;2023-06-14T12:30:32;8.40;;;1.80;;
11699;SDS011;5906;51.660;6.674;2023-06-14T12:33:01;2.83;;;2.20;;
11699;SDS011;5906;51.660;6.674;2023-06-14T12:35:29;4.93;;;2.03;;
11699;SDS011;5906;51.660;6.674;2023-06-14T12:37:56;7.93;;;1.80;;
11699;SDS011;5906;51.660;6.674;2023-06-14T12:40:23;3.03;;;1.70;;
11699;SDS011;5906;51.660;6.674;2023-06-14T12:42:50;2.10;;;1.90;;
11699;SDS011;5906;51.660;6.674;2023-06-14T12:45:17;2.17;;;1.97;;
11699;SDS011;5906;51.660;6.674;2023-06-14T12:47:44;2.60;;;1.50;;
11699;SDS011;5906;51.660;6.674;2023-06-14T12:50:12;1.97;;;1.77;;
11699;SDS011;5906;51.660;6.674;2023-06-14T12:52:39;2.97;;;1.60;;
11699;SDS011;5906;51.660;6.674;2023-06-14T12:55:06;2.97;;;2.00;;
11699;SDS011;5906;51.660;6.674;2023-06-14T12:57:34;2.10;;;1.90;;
11699;SDS011;5906;51.660;6.674;2023-06-14T13:00:03;3.17;;;1.90;;
11699;SDS011;5906;51.660;6.674;2023-06-14T13:02:32;3.17;;;1.87;;
11699;SDS011;5906;51.660;6.674;2023-06-14T13:04:59;6.10;;;2.00;;
11699;SDS011;5906;51.660;6.674;2023-06-14T13:07:27;2.80;;;2.00;;
11699;SDS011;5906;51.660;6.674;2023-06-14T13:09:53;4.03;;;2.00;;
11699;SDS011;5906;51.660;6.674;2023-06-14T13:12:21;7.33;;;2.30;;
11699;SDS011;5906;51.660;6.674;2023-06-14T13:14:48;2.97;;;1.73;;
11699;SDS011;5906;51.660;6.674;2023-06-14T13:17:14;2.33;;;1.73;;
11699;SDS011;5906;51.660;6.674;2023-06-14T13:19:42;2.27;;;1.97;;
11699;SDS011;5906;51.660;6.674;2023-06-14T13:22:09;2.93;;;2.03;;
11699;SDS011;5906;51.660;6.674;2023-06-14T13:24:37;5.80;;;2.07;;
11699;SDS011;5906;51.660;6.674;2023-06-14T13:27:04;2.57;;;2.10;;
11699;SDS011;5906;51.660;6.674;2023-06-14T13:29:32;2.37;;;2.17;;
11699;SDS011;5906;51.660;6.674;2023-06-14T13:32:02;2.33;;;2.13;;
11699;SDS011;5906;51.660;6.674;2023-06-14T13:34:30;2.97;;;2.30;;
11699;SDS011;5906;51.660;6.674;2023-06-14T13:36:57;4.47;;;2.37;;
11699;SDS011;5906;51.660;6.674;2023-06-14T13:39:25;2.30;;;2.10;;
11699;SDS011;5906;51.660;6.674;2023-06-14T13:41:52;3.27;;;2.20;;
11699;SDS011;5906;51.660;6.674;2023-06-14T13:44:20;5.73;;;2.07;;
11699;SDS011;5906;51.660;6.674;2023-06-14T13:46:47;11.67;;;2.20;;
11699;SDS011;5906;51.660;6.674;2023-06-14T13:49:14;2.17;;;1.97;;
11699;SDS011;5906;51.660;6.674;2023-06-14T13:51:41;2.73;;;2.00;;
11699;SDS011;5906;51.660;6.674;2023-06-14T13:54:08;2.37;;;1.97;;
11699;SDS011;5906;51.660;6.674;2023-06-14T13:56:35;3.60;;;2.20;;
11699;SDS011;5906;51.660;6.674;2023-06-14T13:59:02;3.90;;;2.43;;
11699;SDS011;5906;51.660;6.674;2023-06-14T14:01:29;4.97;;;2.57;;
11699;SDS011;5906;51.660;6.674;2023-06-14T14:03:56;6.90;;;2.40;;
11699;SDS011;5906;51.660;6.674;2023-06-14T14:06:25;6.70;;;2.10;;
11699;SDS011;5906;51.660;6.674;2023-06-14T14:08:52;3.23;;;2.30;;
11699;SDS011;5906;51.660;6.674;2023-06-14T14:11:19;2.50;;;2.30;;
11699;SDS011;5906;51.660;6.674;2023-06-14T14:13:46;3.63;;;2.37;;
11699;SDS011;5906;51.660;6.674;2023-06-14T14:16:14;2.27;;;2.00;;
11699;SDS011;5906;51.660;6.674;2023-06-14T14:18:41;3.73;;;2.33;;
11699;SDS011;5906;51.660;6.674;2023-06-14T14:21:09;7.13;;;2.50;;
11699;SDS011;5906;51.660;6.674;2023-06-14T14:23:36;2.97;;;2.60;;
11699;SDS011;5906;51.660;6.674;2023-06-14T14:26:06;6.90;;;2.60;;
11699;SDS011;5906;51.660;6.674;2023-06-14T14:28:33;9.17;;;2.33;;
11699;SDS011;5906;51.660;6.674;2023-06-14T14:31:00;6.13;;;2.30;;
11699;SDS011;5906;51.660;6.674;2023-06-14T14:33:28;8.60;;;2.33;;
11699;SDS011;5906;51.660;6.674;2023-06-14T14:35:55;2.70;;;2.47;;
11699;SDS011;5906;51.660;6.674;2023-06-14T14:38:22;7.17;;;2.13;;
11699;SDS011;5906;51.660;6.674;2023-06-14T14:40:49;5.50;;;2.60;;
11699;SDS011;5906;51.660;6.674;2023-06-14T14:43:16;3.43;;;2.50;;
11699;SDS011;5906;51.660;6.674;2023-06-14T14:45:43;2.90;;;2.63;;
11699;SDS011;5906;51.660;6.674;2023-06-14T14:48:10;3.10;;;2.80;;
11699;SDS011;5906;51.660;6.674;2023-06-14T14:50:37;2.80;;;2.60;;
11699;SDS011;5906;51.660;6.674;2023-06-14T14:53:05;3.07;;;2.50;;
11699;SDS011;5906;51.660;6.674;2023-06-14T14:55:32;4.90;;;2.77;;
11699;SDS011;5906;51.660;6.674;2023-06-14T14:58:02;8.37;;;2.50;;
11699;SDS011;5906;51.660;6.674;2023-06-14T15:00:30;3.20;;;2.57;;
11699;SDS011;5906;51.660;6.674;2023-06-14T15:02:57;2.93;;;2.30;;
11699;SDS011;5906;51.660;6.674;2023-06-14T15:05:25;4.17;;;2.97;;
11699;SDS011;5906;51.660;6.674;2023-06-14T15:07:52;6.93;;;2.53;;
11699;SDS011;5906;51.660;6.674;2023-06-14T15:10:19;4.00;;;2.70;;
11699;SDS011;5906;51.660;6.674;2023-06-14T15:12:46;6.03;;;3.13;;
11699;SDS011;5906;51.660;6.674;2023-06-14T15:15:13;4.37;;;2.97;;
11699;SDS011;5906;51.660;6.674;2023-06-14T15:17:40;3.73;;;2.80;;
11699;SDS011;5906;51.660;6.674;2023-06-14T15:20:07;3.00;;;2.70;;
11699;SDS011;5906;51.660;6.674;2023-06-14T15:22:34;6.00;;;3.00;;
11699;SDS011;5906;51.660;6.674;2023-06-14T15:25:01;3.60;;;2.60;;
11699;SDS011;5906;51.660;6.674;2023-06-14T15:27:28;2.80;;;2.60;;
11699;SDS011;5906;51.660;6.674;2023-06-14T15:29:58;4.70;;;3.20;;